This is the latest recevied weather packets stored in our database for station/object WX6HNX-12. If no packets are shown the sender has not sent any weather packets the latest 1 day(s).
| Time | Temp. | Humidity | Pressure | Rain* | Wind** | Luminosity | Snow |
|---|---|---|---|---|---|---|---|
| 1836274720 | 23.89° C | 68% | 1012.8 hPa | 0 mm | 0 m/s | - | - |
| 1836274571 | 23.89° C | 68% | 1012.9 hPa | 0 mm | 0 m/s | - | - |
| 1836274420 | 23.89° C | 67% | 1012.7 hPa | 0 mm | 0 m/s | - | - |
| 1836274270 | 23.89° C | 68% | 1012.8 hPa | 0 mm | 0 m/s | - | - |
| 1836274120 | 23.89° C | 67% | 1012.7 hPa | 0 mm | 0 m/s | - | - |
| 1778096664 | 22.78° C | 46% | 1018.1 hPa | 0 mm | 0 m/s | - | - |
| 1778096365 | 22.22° C | 46% | 1018.1 hPa | 0 mm | 0 m/s | - | - |
| 1778096064 | 22.22° C | 47% | 1018.3 hPa | 0 mm | 0 m/s | - | - |
| 1778095464 | 21.67° C | 47% | 1018.4 hPa | 0 mm | 0 m/s | - | - |
| 1778095165 | 21.67° C | 49% | 1018.4 hPa | 0 mm | 0 m/s | - | - |
| 1778094864 | 21.67° C | 48% | 1018.5 hPa | 0 mm | 0 m/s | - | - |
| 1778094566 | 21.67° C | 48% | 1018.7 hPa | 0 mm | 0 m/s | - | - |
| 1778094264 | 21.67° C | 49% | 1018.8 hPa | 0 mm | 0 m/s | - | - |
| 1778093964 | 21.11° C | 49% | 1018.8 hPa | 0 mm | 0 m/s | - | - |
| 1778093665 | 21.11° C | 49% | 1018.9 hPa | 0 mm | 0 m/s | - | - |
| 1778093365 | 21.11° C | 49% | 1018.9 hPa | 0 mm | 0 m/s | - | - |
| 1778093064 | 21.11° C | 50% | 1018.9 hPa | 0 mm | 0 m/s | - | - |
| 1778092764 | 21.11° C | 51% | 1019.1 hPa | 0 mm | 0 m/s | - | - |
| 1778092464 | 20.56° C | 52% | 1019 hPa | 0 mm | 0 m/s | - | - |
| 1778092164 | 20.56° C | 51% | 1019.2 hPa | 0 mm | 0 m/s | - | - |
| 1778091864 | 20.56° C | 52% | 1019.2 hPa | 0 mm | 0 m/s | - | - |
| 1778091565 | 20.56° C | 53% | 1019.4 hPa | 0 mm | 0 m/s | - | - |
| 1778091265 | 20.56° C | 52% | 1019.4 hPa | 0 mm | 0 m/s | - | - |
| 1778090965 | 20.56° C | 54% | 1019.5 hPa | 0 mm | 0 m/s | - | - |
| 1778090664 | 20° C | 54% | 1019.6 hPa | 0 mm | 0 m/s | - | - |
* Rain latest hour (hover to see other rain measurements)
** Current wind speed in m/s (hover to see current wind gust speed)